createdAt,value
2018-03-20T00:02:04.698Z,11.60
2018-03-20T00:04:32.271Z,13.23
2018-03-20T00:06:59.800Z,13.40
2018-03-20T00:09:27.364Z,10.00
2018-03-20T00:11:54.894Z,11.10
2018-03-20T00:14:22.468Z,10.73
2018-03-20T00:16:50.788Z,18.03
2018-03-20T00:19:19.120Z,12.73
2018-03-20T00:21:47.472Z,12.77
2018-03-20T00:24:15.069Z,15.33
2018-03-20T00:26:42.646Z,14.87
2018-03-20T00:29:10.185Z,20.07
2018-03-20T00:31:37.762Z,12.27
2018-03-20T00:34:05.312Z,15.97
2018-03-20T00:36:32.886Z,12.00
2018-03-20T00:39:00.435Z,13.80
2018-03-20T00:41:28.013Z,17.13
2018-03-20T00:43:55.570Z,18.03
2018-03-20T00:46:23.149Z,16.70
2018-03-20T00:48:50.692Z,14.33
2018-03-20T00:51:18.326Z,14.37
2018-03-20T00:53:46.661Z,20.37
2018-03-20T00:56:14.223Z,19.70
2018-03-20T00:58:41.861Z,26.03
2018-03-20T01:01:09.428Z,16.13
2018-03-20T01:03:37.004Z,17.83
2018-03-20T01:06:05.320Z,12.83
2018-03-20T01:08:33.676Z,16.23
2018-03-20T01:11:01.265Z,14.47
2018-03-20T01:13:29.615Z,13.10
2018-03-20T01:15:57.165Z,13.83
2018-03-20T01:18:24.727Z,14.93
2018-03-20T01:20:52.299Z,13.13
2018-03-20T01:23:19.861Z,17.97
2018-03-20T01:25:47.408Z,15.07
2018-03-20T01:28:15.015Z,17.43
2018-03-20T01:30:42.569Z,15.77
2018-03-20T01:33:10.893Z,15.30
2018-03-20T01:35:38.464Z,18.63
2018-03-20T01:38:06.001Z,10.47
2018-03-20T01:40:33.560Z,14.40
2018-03-20T01:43:01.128Z,11.97
2018-03-20T01:45:28.685Z,11.17
2018-03-20T01:47:56.252Z,15.37
2018-03-20T01:50:23.837Z,15.33
2018-03-20T01:53:03.132Z,16.70
2018-03-20T01:55:30.717Z,16.03
2018-03-20T01:57:58.269Z,16.00
2018-03-20T02:00:25.813Z,13.67
2018-03-20T02:02:53.379Z,14.23
2018-03-20T02:05:20.947Z,18.60
2018-03-20T02:07:48.504Z,15.87
2018-03-20T02:10:16.047Z,15.57
2018-03-20T02:12:43.624Z,19.40
2018-03-20T02:15:11.182Z,15.13
2018-03-20T02:17:38.757Z,12.93
2018-03-20T02:20:06.298Z,12.93
2018-03-20T02:22:33.888Z,22.57
2018-03-20T02:25:01.455Z,16.87
2018-03-20T02:27:29.030Z,23.30
2018-03-20T02:29:56.588Z,17.40
2018-03-20T02:32:24.147Z,13.63
2018-03-20T02:34:51.750Z,15.53
2018-03-20T02:37:19.333Z,13.57
2018-03-20T02:39:46.922Z,18.07
2018-03-20T02:42:14.497Z,13.93
2018-03-20T02:44:42.394Z,17.30
2018-03-20T02:47:09.957Z,12.07
2018-03-20T02:49:37.532Z,18.73
2018-03-20T02:52:05.099Z,19.30
2018-03-20T02:54:32.707Z,13.77
2018-03-20T02:57:00.253Z,14.93
2018-03-20T02:59:27.816Z,19.40
2018-03-20T03:01:55.385Z,15.70
2018-03-20T03:04:23.747Z,12.07
2018-03-20T03:06:51.300Z,16.63
2018-03-20T03:09:18.885Z,14.80
2018-03-20T03:11:46.441Z,17.20
2018-03-20T03:14:14.025Z,22.53
2018-03-20T03:16:42.349Z,20.67
2018-03-20T03:19:09.906Z,15.53
2018-03-20T03:21:37.452Z,19.37
2018-03-20T03:24:05.026Z,17.10
2018-03-20T03:26:32.585Z,16.50
2018-03-20T03:29:00.145Z,15.43
2018-03-20T03:31:27.690Z,19.40
2018-03-20T03:33:55.254Z,20.30
2018-03-20T03:36:22.827Z,20.17
2018-03-20T03:38:50.459Z,27.63
2018-03-20T03:41:18.024Z,22.37
2018-03-20T03:43:45.587Z,17.00
2018-03-20T03:46:13.168Z,20.10
2018-03-20T03:48:40.705Z,18.53
2018-03-20T03:51:08.295Z,18.93
2018-03-20T03:53:35.843Z,20.27
2018-03-20T03:56:03.409Z,25.53
2018-03-20T03:58:30.971Z,15.73
2018-03-20T04:00:58.540Z,21.27
2018-03-20T04:03:26.079Z,14.73
2018-03-20T04:05:53.695Z,16.30
2018-03-20T04:08:21.240Z,17.33
2018-03-20T04:10:48.782Z,12.70
2018-03-20T04:13:16.338Z,14.57
2018-03-20T04:15:43.885Z,19.20
2018-03-20T04:18:11.453Z,15.07
2018-03-20T04:20:39.007Z,19.70
2018-03-20T04:23:06.579Z,14.00
2018-03-20T04:25:34.122Z,16.33
2018-03-20T04:28:01.678Z,16.90
2018-03-20T04:30:29.247Z,15.23
2018-03-20T04:32:56.802Z,17.07
2018-03-20T04:35:24.329Z,14.97
2018-03-20T04:37:52.657Z,13.47
2018-03-20T04:40:20.210Z,18.43
2018-03-20T04:42:47.740Z,27.13
2018-03-20T04:45:15.306Z,12.83
2018-03-20T04:47:42.848Z,22.63
2018-03-20T04:50:11.159Z,18.00
2018-03-20T04:52:38.703Z,19.93
2018-03-20T04:55:06.262Z,15.80
2018-03-20T04:57:34.573Z,13.57
2018-03-20T05:00:02.147Z,17.17
2018-03-20T05:02:29.693Z,16.40
2018-03-20T05:04:57.254Z,19.90
2018-03-20T05:07:24.809Z,20.73
2018-03-20T05:09:52.402Z,19.23
2018-03-20T05:12:19.955Z,16.23
2018-03-20T05:14:47.493Z,16.60
2018-03-20T05:17:15.039Z,18.67
2018-03-20T05:19:48.263Z,19.67
2018-03-20T05:22:20.414Z,24.37
2018-03-20T05:24:47.959Z,17.53
2018-03-20T05:27:15.529Z,20.63
2018-03-20T05:29:43.090Z,14.53
2018-03-20T05:32:10.685Z,15.07
2018-03-20T05:34:38.218Z,16.07
2018-03-20T05:37:05.775Z,14.73
2018-03-20T05:39:33.339Z,16.83
2018-03-20T05:42:00.921Z,21.53
2018-03-20T05:44:28.492Z,14.03
2018-03-20T05:50:14.475Z,13.73
2018-03-20T05:52:42.029Z,12.97
2018-03-20T05:55:09.599Z,11.17
2018-03-20T05:57:37.188Z,18.73
2018-03-20T06:00:04.760Z,13.23
2018-03-20T06:02:33.088Z,12.20
2018-03-20T06:05:00.651Z,10.20
2018-03-20T06:07:28.194Z,12.63
2018-03-20T06:09:55.772Z,18.60
2018-03-20T06:12:23.318Z,12.30
2018-03-20T06:14:50.892Z,15.70
2018-03-20T06:17:18.434Z,12.00
2018-03-20T06:19:45.988Z,12.97
2018-03-20T06:22:14.276Z,9.17
2018-03-20T06:24:41.884Z,13.00
2018-03-20T06:27:09.404Z,9.43
2018-03-20T06:29:36.994Z,9.13
2018-03-20T06:32:04.530Z,11.00
2018-03-20T06:34:32.073Z,12.00
2018-03-20T06:36:59.640Z,14.50
2018-03-20T06:39:27.175Z,12.17
2018-03-20T06:41:55.514Z,12.50
2018-03-20T06:44:23.072Z,10.80
2018-03-20T06:46:50.645Z,16.67
2018-03-20T06:49:18.188Z,12.07
2018-03-20T06:51:45.769Z,10.47
2018-03-20T06:54:13.320Z,13.00
2018-03-20T06:56:40.915Z,10.20
2018-03-20T06:59:08.470Z,14.17
2018-03-20T07:01:36.015Z,11.00
2018-03-20T07:04:03.569Z,14.03
2018-03-20T07:06:32.654Z,18.43
2018-03-20T07:09:00.248Z,15.33
2018-03-20T07:11:28.564Z,15.07
2018-03-20T07:13:56.141Z,12.50
2018-03-20T07:16:23.693Z,20.00
2018-03-20T07:18:51.270Z,13.23
2018-03-20T07:21:18.818Z,17.23
2018-03-20T07:23:46.393Z,13.17
2018-03-20T07:26:13.939Z,12.47
2018-03-20T07:28:41.506Z,13.40
2018-03-20T07:31:09.054Z,15.27
2018-03-20T07:33:36.617Z,13.37
2018-03-20T07:36:04.195Z,11.90
2018-03-20T07:38:31.742Z,10.80
2018-03-20T07:40:59.303Z,13.23
2018-03-20T07:43:26.861Z,12.77
2018-03-20T07:45:54.422Z,12.27
2018-03-20T07:48:21.966Z,16.67
2018-03-20T07:50:49.537Z,13.73
2018-03-20T07:53:17.122Z,13.93
2018-03-20T07:55:44.738Z,17.50
2018-03-20T07:58:12.279Z,11.53
2018-03-20T08:00:40.613Z,13.67
2018-03-20T08:03:08.162Z,15.50
2018-03-20T08:05:35.711Z,13.30
2018-03-20T08:08:03.269Z,18.20
2018-03-20T08:10:30.809Z,15.73
2018-03-20T08:12:59.129Z,24.50
2018-03-20T08:15:26.684Z,14.97
2018-03-20T08:17:54.242Z,14.47
2018-03-20T08:20:21.773Z,12.40
2018-03-20T08:22:50.090Z,11.80
2018-03-20T08:25:17.632Z,15.63
2018-03-20T08:27:45.193Z,11.97
2018-03-20T08:30:12.744Z,13.83
2018-03-20T08:32:40.321Z,12.03
2018-03-20T08:35:07.875Z,12.67
2018-03-20T08:37:35.426Z,16.23
2018-03-20T08:40:02.997Z,11.27
2018-03-20T08:42:30.539Z,11.83
2018-03-20T08:44:58.114Z,17.23
2018-03-20T08:47:25.641Z,8.80
2018-03-20T08:49:53.968Z,12.30
2018-03-20T08:52:21.507Z,13.00
2018-03-20T08:54:49.094Z,15.93
2018-03-20T08:57:16.631Z,11.63
2018-03-20T08:59:44.201Z,16.33
2018-03-20T09:02:11.758Z,15.30
2018-03-20T09:04:39.297Z,17.20
2018-03-20T09:07:06.854Z,15.27
2018-03-20T09:09:34.440Z,15.27
2018-03-20T09:12:02.011Z,20.33
2018-03-20T09:14:29.567Z,14.77
2018-03-20T09:16:57.896Z,20.07
2018-03-20T09:19:26.212Z,16.80
2018-03-20T09:21:53.761Z,20.27
2018-03-20T09:24:21.309Z,18.20
2018-03-20T09:26:48.891Z,20.23
2018-03-20T09:29:16.453Z,18.07
2018-03-20T09:31:43.986Z,21.53
2018-03-20T09:34:12.297Z,15.70
2018-03-20T09:36:39.834Z,26.53
2018-03-20T09:39:07.407Z,19.13
2018-03-20T09:41:34.968Z,17.93
2018-03-20T09:44:02.529Z,17.20
2018-03-20T09:46:30.072Z,18.77
2018-03-20T09:48:57.686Z,19.23
2018-03-20T09:51:25.233Z,16.57
2018-03-20T09:53:52.806Z,18.37
2018-03-20T09:56:20.391Z,18.07
2018-03-20T09:58:47.927Z,20.73
2018-03-20T10:01:15.472Z,16.77
2018-03-20T10:03:43.012Z,15.83
2018-03-20T10:06:10.564Z,13.20
2018-03-20T10:08:38.114Z,19.40
2018-03-20T10:11:05.674Z,13.33
2018-03-20T10:13:33.251Z,15.77
2018-03-20T10:16:00.794Z,21.07
2018-03-20T10:18:28.327Z,14.77
2018-03-20T10:20:56.694Z,15.23
2018-03-20T10:23:24.226Z,16.97
2018-03-20T10:25:51.759Z,15.93
2018-03-20T10:28:19.832Z,12.13
2018-03-20T10:30:47.390Z,16.27
2018-03-20T10:33:14.928Z,16.23
2018-03-20T10:35:42.456Z,12.17
2018-03-20T10:38:10.028Z,15.67
2018-03-20T10:40:37.557Z,17.43
2018-03-20T10:43:05.119Z,16.80
2018-03-20T10:45:32.669Z,15.87
2018-03-20T10:48:00.211Z,15.53
2018-03-20T10:50:27.740Z,12.63
2018-03-20T10:52:56.115Z,15.90
2018-03-20T10:55:24.423Z,16.60
2018-03-20T10:57:52.018Z,26.37
2018-03-20T11:03:24.219Z,18.43
2018-03-20T11:05:51.882Z,13.73
2018-03-20T11:08:19.473Z,15.93
2018-03-20T11:10:47.803Z,13.67
2018-03-20T11:13:15.330Z,22.87
2018-03-20T11:15:42.886Z,19.90
2018-03-20T11:18:10.435Z,17.40
2018-03-20T11:20:38.762Z,14.90
2018-03-20T11:23:06.291Z,16.77
2018-03-20T11:25:33.840Z,20.07
2018-03-20T11:28:01.368Z,14.23
2018-03-20T11:30:28.946Z,15.50
2018-03-20T11:32:57.266Z,17.67
2018-03-20T11:35:24.858Z,15.63
2018-03-20T11:37:52.395Z,15.43
2018-03-20T11:40:19.939Z,15.07
2018-03-20T11:42:47.485Z,17.90
2018-03-20T11:45:15.014Z,15.97
2018-03-20T11:47:43.369Z,12.70
2018-03-20T11:50:10.891Z,15.90
2018-03-20T11:52:38.466Z,20.97
2018-03-20T11:55:06.010Z,13.40
2018-03-20T11:57:33.590Z,22.10
2018-03-20T12:00:01.141Z,15.73
2018-03-20T12:02:28.687Z,17.77
2018-03-20T12:04:56.248Z,12.27
2018-03-20T12:07:23.803Z,13.13
2018-03-20T12:09:51.370Z,24.47
2018-03-20T12:12:18.909Z,14.93
2018-03-20T12:14:47.246Z,14.63
2018-03-20T12:17:14.781Z,14.30
2018-03-20T12:19:42.336Z,14.90
2018-03-20T12:22:09.898Z,17.10
2018-03-20T12:24:37.507Z,16.40
2018-03-20T12:27:05.045Z,13.47
2018-03-20T12:29:32.605Z,16.43
2018-03-20T12:32:00.163Z,12.93
2018-03-20T12:34:27.766Z,15.20
2018-03-20T12:36:56.108Z,15.73
2018-03-20T12:39:23.642Z,14.03
2018-03-20T12:41:51.203Z,12.03
2018-03-20T12:44:18.740Z,9.77
2018-03-20T12:46:46.360Z,10.53
2018-03-20T12:49:13.853Z,12.20
2018-03-20T12:51:41.420Z,13.50
2018-03-20T12:54:09.004Z,10.07
2018-03-20T12:56:36.563Z,11.30
2018-03-20T12:59:04.092Z,11.17
2018-03-20T13:01:32.434Z,14.73
2018-03-20T13:03:59.974Z,12.47
2018-03-20T13:06:27.543Z,16.13
2018-03-20T13:08:55.090Z,14.63
2018-03-20T13:11:22.654Z,12.43
2018-03-20T13:13:50.970Z,13.17
2018-03-20T13:16:18.519Z,15.60
2018-03-20T13:18:46.101Z,13.80
2018-03-20T13:21:14.420Z,13.07
2018-03-20T13:23:41.962Z,14.67
2018-03-20T13:26:09.494Z,10.20
2018-03-20T13:28:37.817Z,12.37
2018-03-20T13:31:05.421Z,12.80
2018-03-20T13:33:33.853Z,13.30
2018-03-20T13:36:01.406Z,12.37
2018-03-20T13:38:28.972Z,13.63
2018-03-20T13:40:56.513Z,13.57
2018-03-20T13:43:24.092Z,12.93
2018-03-20T13:45:51.650Z,15.07
2018-03-20T13:48:19.184Z,11.17
2018-03-20T13:50:47.493Z,10.80
2018-03-20T13:53:31.906Z,12.93
2018-03-20T13:56:00.298Z,13.43
2018-03-20T13:58:27.838Z,12.60
2018-03-20T14:00:55.420Z,11.80
2018-03-20T14:03:23.726Z,21.63
2018-03-20T14:05:51.287Z,12.83
2018-03-20T14:08:18.823Z,12.67
2018-03-20T14:10:46.392Z,13.90
2018-03-20T14:13:13.945Z,11.47
2018-03-20T14:15:41.520Z,11.17
2018-03-20T14:18:09.066Z,9.77
2018-03-20T14:20:36.666Z,11.30
2018-03-20T14:23:04.199Z,12.20
2018-03-20T14:25:31.750Z,9.07
2018-03-20T14:27:59.299Z,10.43
2018-03-20T14:30:27.606Z,8.47
2018-03-20T14:32:55.166Z,11.13
2018-03-20T14:35:22.727Z,10.10
2018-03-20T14:37:50.301Z,9.40
2018-03-20T14:40:17.851Z,9.07
2018-03-20T14:42:45.413Z,8.97
2018-03-20T14:45:12.979Z,10.23
2018-03-20T14:47:40.553Z,11.70
2018-03-20T14:50:08.186Z,6.10
2018-03-20T14:52:35.782Z,6.87
2018-03-20T14:55:03.333Z,9.17
2018-03-20T14:57:30.936Z,6.67
2018-03-20T14:59:58.511Z,8.83
2018-03-20T15:02:28.583Z,8.33
2018-03-20T15:04:56.174Z,9.23
2018-03-20T15:07:23.948Z,10.23
2018-03-20T15:09:52.290Z,9.60
2018-03-20T15:12:19.836Z,6.70
2018-03-20T15:14:49.451Z,8.57
2018-03-20T15:17:18.102Z,7.73
2018-03-20T15:19:45.997Z,6.03
2018-03-20T15:22:13.560Z,8.90
2018-03-20T15:24:43.687Z,9.83
2018-03-20T15:27:11.270Z,6.53
2018-03-20T15:29:50.680Z,9.97
2018-03-20T15:32:25.953Z,5.47
2018-03-20T15:34:57.468Z,4.30
2018-03-20T15:37:26.265Z,4.63
2018-03-20T15:39:54.251Z,8.23
2018-03-20T15:42:21.810Z,4.30
2018-03-20T15:44:49.350Z,2.03
2018-03-20T15:47:16.914Z,3.10
2018-03-20T15:49:46.944Z,4.47
2018-03-20T15:52:16.225Z,5.73
2018-03-20T15:54:43.898Z,2.17
2018-03-20T15:57:14.915Z,4.10
2018-03-20T15:59:46.694Z,3.80
2018-03-20T16:02:14.426Z,4.30
2018-03-20T16:04:41.966Z,4.73
2018-03-20T16:07:09.594Z,3.97
2018-03-20T16:09:37.141Z,5.50
2018-03-20T16:12:04.694Z,9.67
2018-03-20T16:14:32.272Z,3.80
2018-03-20T16:16:59.830Z,1.23
2018-03-20T16:19:28.130Z,4.10
2018-03-20T16:21:56.008Z,2.10
2018-03-20T16:24:23.600Z,1.00
2018-03-20T16:26:53.286Z,8.27
2018-03-20T16:29:20.894Z,1.23
2018-03-20T16:31:56.223Z,3.10
2018-03-20T16:34:23.852Z,1.17
2018-03-20T16:36:51.534Z,1.53
2018-03-20T16:39:19.091Z,4.07
2018-03-20T16:41:48.340Z,5.77
2018-03-20T16:44:15.891Z,6.97
2018-03-20T16:46:44.020Z,4.60
2018-03-20T16:49:12.319Z,1.13
2018-03-20T16:51:39.888Z,8.33
2018-03-20T16:54:07.442Z,2.67
2018-03-20T16:56:35.000Z,5.00
2018-03-20T16:59:02.570Z,2.43
2018-03-20T17:01:30.126Z,1.10
2018-03-20T17:03:57.747Z,5.47
2018-03-20T17:06:25.433Z,4.57
2018-03-20T17:08:53.000Z,2.30
2018-03-20T17:11:21.512Z,3.37
2018-03-20T17:13:49.091Z,7.90
2018-03-20T17:16:19.840Z,2.93
2018-03-20T17:18:49.682Z,1.07
2018-03-20T17:21:17.974Z,2.83
2018-03-20T17:23:45.544Z,2.03
2018-03-20T17:26:13.072Z,1.13
2018-03-20T17:28:41.429Z,1.10
2018-03-20T17:31:09.057Z,2.73
2018-03-20T17:33:37.099Z,4.13
2018-03-20T17:36:07.200Z,4.17
2018-03-20T17:38:34.817Z,2.57
2018-03-20T17:41:02.472Z,2.60
2018-03-20T17:43:30.099Z,2.83
2018-03-20T17:45:58.412Z,3.53
2018-03-20T17:48:26.190Z,5.57
2018-03-20T17:51:02.263Z,1.37
2018-03-20T17:53:30.656Z,1.60
2018-03-20T17:55:58.266Z,4.10
2018-03-20T17:58:25.818Z,3.10
2018-03-20T18:00:53.567Z,4.73
2018-03-20T18:03:21.857Z,4.63
2018-03-20T18:05:49.529Z,1.10
2018-03-20T18:08:17.070Z,3.13
2018-03-20T18:10:45.438Z,2.20
2018-03-20T18:13:13.018Z,5.73
2018-03-20T18:15:40.723Z,3.50
2018-03-20T18:18:08.268Z,5.60
2018-03-20T18:20:35.853Z,2.40
2018-03-20T18:23:03.391Z,5.93
2018-03-20T18:25:31.015Z,3.40
2018-03-20T18:27:58.990Z,4.93
2018-03-20T18:30:32.546Z,5.00
2018-03-20T18:33:00.883Z,2.70
2018-03-20T18:35:28.406Z,3.03
2018-03-20T18:37:55.969Z,3.80
2018-03-20T18:40:23.564Z,2.80
2018-03-20T18:42:51.117Z,2.90
2018-03-20T18:45:19.738Z,6.67
2018-03-20T18:47:47.314Z,5.80
2018-03-20T18:50:14.866Z,2.80
2018-03-20T18:52:42.449Z,2.70
2018-03-20T18:55:10.046Z,7.70
2018-03-20T18:57:38.397Z,7.20
2018-03-20T19:00:06.027Z,4.63
2018-03-20T19:02:33.587Z,3.27
2018-03-20T19:05:01.937Z,5.03
2018-03-20T19:07:29.504Z,2.33
2018-03-20T19:09:57.102Z,3.13
2018-03-20T19:12:24.643Z,6.33
2018-03-20T19:14:52.277Z,7.07
2018-03-20T19:17:19.825Z,5.07
2018-03-20T19:19:47.503Z,3.17
2018-03-20T19:22:15.044Z,1.37
2018-03-20T19:24:43.373Z,2.43
2018-03-20T19:27:11.040Z,1.17
2018-03-20T19:29:38.613Z,5.97
2018-03-20T19:32:06.154Z,4.03
2018-03-20T19:34:33.750Z,3.80
2018-03-20T19:37:01.393Z,1.80
2018-03-20T19:39:29.759Z,5.53
2018-03-20T19:41:57.330Z,2.50
2018-03-20T19:44:24.877Z,4.97
2018-03-20T19:46:52.480Z,1.20
2018-03-20T19:49:20.078Z,4.27
2018-03-20T19:51:47.643Z,4.00
2018-03-20T19:54:15.241Z,4.77
2018-03-20T19:56:42.791Z,6.00
2018-03-20T19:59:10.446Z,4.03
2018-03-20T20:01:38.200Z,2.97
2018-03-20T20:04:06.547Z,6.13
2018-03-20T20:06:35.019Z,3.23
2018-03-20T20:09:03.359Z,3.57
2018-03-20T20:11:31.673Z,4.50
2018-03-20T20:14:00.057Z,1.57
2018-03-20T20:16:27.853Z,3.47
2018-03-20T20:18:55.435Z,4.80
2018-03-20T20:21:23.025Z,5.77
2018-03-20T20:23:50.836Z,5.40
2018-03-20T20:26:18.390Z,4.93
2018-03-20T20:28:46.735Z,1.20
2018-03-20T20:31:14.345Z,5.43
2018-03-20T20:33:41.988Z,2.03
2018-03-20T20:36:09.628Z,4.97
2018-03-20T20:38:37.173Z,5.63
2018-03-20T20:41:04.768Z,5.43
2018-03-20T20:43:33.108Z,2.77
2018-03-20T20:46:00.715Z,5.73
2018-03-20T20:48:28.279Z,7.47
2018-03-20T20:50:55.882Z,2.90
2018-03-20T20:53:23.425Z,1.37
2018-03-20T20:55:51.094Z,2.53
2018-03-20T20:58:18.816Z,2.73
2018-03-20T21:00:46.441Z,5.37
2018-03-20T21:03:14.076Z,1.77
2018-03-20T21:05:41.730Z,4.50
2018-03-20T21:08:09.296Z,4.00
2018-03-20T21:10:36.981Z,3.67
2018-03-20T21:13:07.291Z,7.80
2018-03-20T21:15:35.267Z,4.53
2018-03-20T21:18:02.830Z,4.40
2018-03-20T21:20:33.326Z,3.03
2018-03-20T21:23:01.049Z,2.63
2018-03-20T21:25:31.911Z,4.57
2018-03-20T21:28:00.327Z,2.93
2018-03-20T21:30:27.881Z,3.27
2018-03-20T21:32:55.546Z,7.93
2018-03-20T21:35:23.090Z,3.20
2018-03-20T21:37:50.754Z,3.50
2018-03-20T21:40:18.312Z,4.43
2018-03-20T21:42:48.694Z,6.40
2018-03-20T21:45:16.260Z,4.97
2018-03-20T21:47:43.809Z,3.23
2018-03-20T21:50:16.585Z,3.03
2018-03-20T21:52:44.195Z,1.37
2018-03-20T21:55:12.665Z,4.67
2018-03-20T21:57:42.058Z,4.40
2018-03-20T22:00:10.197Z,4.87
2018-03-20T22:02:47.460Z,4.30
2018-03-20T22:05:15.020Z,3.60
2018-03-20T22:07:42.569Z,2.07
2018-03-20T22:10:10.141Z,2.97
2018-03-20T22:12:37.735Z,1.90
2018-03-20T22:15:05.312Z,3.43
2018-03-20T22:17:35.963Z,2.20
2018-03-20T22:20:03.571Z,3.57
2018-03-20T22:22:32.673Z,4.70
2018-03-20T22:25:00.252Z,2.57
2018-03-20T22:27:27.828Z,3.37
2018-03-20T22:29:56.173Z,4.30
2018-03-20T22:32:25.009Z,5.40
2018-03-20T22:34:53.491Z,7.57
2018-03-20T22:37:21.066Z,3.47
2018-03-20T22:39:49.482Z,4.00
2018-03-20T22:42:17.054Z,3.10
2018-03-20T22:44:44.600Z,2.60
2018-03-20T22:47:12.234Z,7.20
2018-03-20T22:49:39.856Z,3.23
2018-03-20T22:52:07.463Z,2.83
2018-03-20T22:54:35.044Z,1.93
2018-03-20T22:57:02.712Z,2.93
2018-03-20T22:59:30.420Z,6.70
2018-03-20T23:01:58.031Z,5.27
2018-03-20T23:04:25.596Z,2.23
2018-03-20T23:06:53.153Z,5.33
2018-03-20T23:09:20.728Z,3.90
2018-03-20T23:11:48.304Z,2.93
2018-03-20T23:14:15.861Z,2.73
2018-03-20T23:16:43.487Z,2.57
2018-03-20T23:19:11.034Z,2.73
2018-03-20T23:21:39.367Z,3.07
2018-03-20T23:24:06.992Z,3.40
2018-03-20T23:26:34.561Z,3.90
2018-03-20T23:29:02.121Z,5.07
2018-03-20T23:31:29.750Z,3.60
2018-03-20T23:33:58.067Z,4.93
2018-03-20T23:36:25.677Z,3.33
2018-03-20T23:38:53.218Z,1.50
2018-03-20T23:41:20.856Z,3.00
2018-03-20T23:43:48.418Z,2.33
2018-03-20T23:46:15.967Z,4.37
2018-03-20T23:48:43.528Z,1.43
2018-03-20T23:51:11.083Z,4.57
2018-03-20T23:53:38.646Z,6.37
2018-03-20T23:56:06.203Z,3.00
2018-03-20T23:58:33.786Z,5.93
